createdAt,value
2018-06-19T00:00:09.465Z,6.20
2018-06-19T00:01:09.464Z,6.50
2018-06-19T00:02:09.465Z,6.20
2018-06-19T00:03:09.466Z,6.40
2018-06-19T00:04:09.468Z,6.00
2018-06-19T00:05:09.470Z,6.00
2018-06-19T00:06:09.470Z,6.20
2018-06-19T00:07:09.472Z,6.40
2018-06-19T00:08:09.474Z,5.50
2018-06-19T00:09:09.475Z,6.40
2018-06-19T00:10:09.476Z,5.50
2018-06-19T00:11:09.478Z,6.00
2018-06-19T00:12:09.478Z,6.00
2018-06-19T00:13:09.481Z,6.40
2018-06-19T00:14:09.481Z,5.80
2018-06-19T00:15:09.482Z,6.20
2018-06-19T00:16:09.485Z,5.70
2018-06-19T00:17:09.485Z,6.20
2018-06-19T00:18:09.485Z,5.60
2018-06-19T00:19:09.487Z,5.70
2018-06-19T00:20:09.488Z,5.20
2018-06-19T00:21:09.495Z,5.90
2018-06-19T00:22:09.490Z,4.80
2018-06-19T00:23:09.491Z,4.60
2018-06-19T00:24:09.496Z,4.90
2018-06-19T00:25:09.496Z,4.40
2018-06-19T00:26:09.496Z,3.60
2018-06-19T00:27:09.500Z,4.20
2018-06-19T00:28:09.499Z,4.20
2018-06-19T00:29:09.499Z,4.10
2018-06-19T00:30:09.500Z,4.10
2018-06-19T00:31:09.502Z,3.60
2018-06-19T00:32:09.503Z,4.10
2018-06-19T00:33:09.505Z,3.30
2018-06-19T00:34:09.505Z,3.30
2018-06-19T00:35:09.506Z,3.40
2018-06-19T00:36:09.511Z,3.30
2018-06-19T00:37:09.513Z,3.50
2018-06-19T00:38:09.510Z,4.20
2018-06-19T00:39:09.512Z,3.10
2018-06-19T00:40:09.512Z,3.00
2018-06-19T00:41:09.515Z,3.00
2018-06-19T00:42:09.515Z,2.90
2018-06-19T00:43:09.517Z,2.60
2018-06-19T00:44:09.518Z,3.90
2018-06-19T00:45:09.519Z,2.70
2018-06-19T00:46:09.520Z,2.90
2018-06-19T00:47:09.522Z,3.30
2018-06-19T00:48:09.521Z,2.60
2018-06-19T00:49:09.525Z,2.80
2018-06-19T00:50:09.525Z,2.70
2018-06-19T00:51:09.527Z,2.10
2018-06-19T00:52:09.529Z,3.20
2018-06-19T00:53:09.531Z,2.80
2018-06-19T00:54:09.531Z,3.00
2018-06-19T00:55:09.532Z,2.80
2018-06-19T00:56:09.534Z,2.70
2018-06-19T00:57:09.540Z,2.20
2018-06-19T00:58:09.536Z,2.90
2018-06-19T00:59:09.538Z,2.30
2018-06-19T01:00:09.539Z,2.40
2018-06-19T01:01:09.543Z,2.40
2018-06-19T01:02:09.547Z,2.60
2018-06-19T01:03:09.543Z,2.80
2018-06-19T01:04:09.546Z,2.20
2018-06-19T01:05:09.547Z,2.70
2018-06-19T01:06:09.547Z,2.40
2018-06-19T01:07:09.548Z,2.70
2018-06-19T01:08:09.551Z,2.10
2018-06-19T01:09:09.553Z,2.40
2018-06-19T01:10:09.554Z,2.40
2018-06-19T01:11:09.555Z,2.60
2018-06-19T01:12:09.557Z,2.30
2018-06-19T01:13:09.559Z,2.30
2018-06-19T01:14:09.559Z,2.80
2018-06-19T01:15:09.561Z,2.80
2018-06-19T01:16:09.562Z,2.30
2018-06-19T01:17:09.565Z,2.40
2018-06-19T01:18:09.565Z,2.50
2018-06-19T01:19:09.567Z,2.90
2018-06-19T01:20:09.568Z,2.70
2018-06-19T01:21:09.571Z,2.60
2018-06-19T01:22:09.571Z,2.70
2018-06-19T01:23:09.573Z,2.90
2018-06-19T01:24:09.575Z,2.80
2018-06-19T01:25:09.576Z,2.80
2018-06-19T01:26:09.577Z,3.10
2018-06-19T01:27:09.581Z,2.70
2018-06-19T01:28:09.581Z,2.50
2018-06-19T01:29:09.583Z,2.90
2018-06-19T01:30:09.583Z,2.60
2018-06-19T01:31:09.586Z,2.90
2018-06-19T01:32:09.591Z,2.90
2018-06-19T01:33:09.593Z,2.90
2018-06-19T01:34:09.590Z,3.20
2018-06-19T01:35:09.592Z,2.50
2018-06-19T01:36:09.594Z,2.40
2018-06-19T01:37:09.596Z,2.90
2018-06-19T01:38:09.714Z,2.80
2018-06-19T01:39:09.600Z,2.60
2018-06-19T01:40:09.602Z,2.80
2018-06-19T01:41:09.605Z,2.70
2018-06-19T01:42:09.604Z,2.90
2018-06-19T01:43:09.606Z,2.40
2018-06-19T01:44:09.608Z,3.10
2018-06-19T01:45:09.609Z,2.20
2018-06-19T01:46:09.609Z,2.90
2018-06-19T01:47:09.612Z,2.50
2018-06-19T01:48:09.613Z,2.30
2018-06-19T01:49:09.614Z,2.00
2018-06-19T01:50:09.618Z,1.90
2018-06-19T01:51:09.617Z,2.60
2018-06-19T01:52:09.619Z,2.70
2018-06-19T01:53:09.621Z,2.60
2018-06-19T01:54:09.622Z,2.20
2018-06-19T01:55:09.624Z,2.10
2018-06-19T01:56:09.625Z,2.70
2018-06-19T01:57:09.629Z,2.80
2018-06-19T01:58:09.627Z,2.60
2018-06-19T01:59:09.629Z,2.20
2018-06-19T02:00:09.634Z,1.90
2018-06-19T02:01:09.633Z,2.20
2018-06-19T02:02:09.634Z,1.90
2018-06-19T02:03:09.634Z,2.10
2018-06-19T02:04:09.638Z,1.80
2018-06-19T02:05:09.638Z,2.10
2018-06-19T02:06:09.640Z,1.60
2018-06-19T02:07:09.640Z,2.00
2018-06-19T02:08:09.642Z,1.50
2018-06-19T02:09:09.643Z,1.70
2018-06-19T02:10:09.645Z,2.00
2018-06-19T02:11:09.645Z,1.50
2018-06-19T02:12:09.648Z,1.70
2018-06-19T02:13:09.649Z,1.50
2018-06-19T02:14:09.651Z,2.20
2018-06-19T02:15:09.651Z,1.80
2018-06-19T02:16:09.654Z,1.30
2018-06-19T02:17:09.655Z,1.50
2018-06-19T02:18:09.655Z,1.20
2018-06-19T02:19:09.658Z,1.70
2018-06-19T02:20:09.664Z,1.60
2018-06-19T02:21:09.660Z,1.90
2018-06-19T02:22:09.659Z,2.00
2018-06-19T02:23:09.662Z,1.70
2018-06-19T02:24:09.663Z,2.00
2018-06-19T02:25:09.665Z,1.50
2018-06-19T02:26:09.666Z,1.60
2018-06-19T02:27:09.668Z,1.50
2018-06-19T02:28:09.669Z,1.70
2018-06-19T02:29:09.670Z,1.90
2018-06-19T02:30:09.671Z,1.70
2018-06-19T02:31:09.681Z,1.50
2018-06-19T02:32:09.674Z,1.50
2018-06-19T02:33:09.676Z,1.50
2018-06-19T02:34:09.677Z,2.00
2018-06-19T02:35:09.678Z,1.50
2018-06-19T02:36:09.680Z,1.90
2018-06-19T02:37:09.681Z,1.50
2018-06-19T02:38:09.682Z,1.30
2018-06-19T02:39:09.683Z,1.90
2018-06-19T02:40:09.685Z,1.80
2018-06-19T02:41:09.686Z,1.50
2018-06-19T02:42:09.687Z,1.50
2018-06-19T02:43:09.687Z,1.80
2018-06-19T02:44:09.690Z,1.30
2018-06-19T02:45:09.692Z,1.50
2018-06-19T02:46:09.692Z,1.80
2018-06-19T02:47:09.700Z,1.50
2018-06-19T02:48:09.698Z,1.90
2018-06-19T02:49:09.698Z,1.50
2018-06-19T02:50:09.698Z,1.80
2018-06-19T02:51:09.699Z,1.50
2018-06-19T02:52:09.701Z,1.60
2018-06-19T02:53:09.702Z,1.50
2018-06-19T02:54:09.701Z,1.80
2018-06-19T02:55:09.706Z,1.30
2018-06-19T02:56:09.706Z,1.80
2018-06-19T02:57:09.709Z,1.70
2018-06-19T02:58:09.708Z,1.60
2018-06-19T02:59:09.713Z,2.00
2018-06-19T03:00:09.711Z,1.30
2018-06-19T03:01:09.713Z,1.90
2018-06-19T03:02:09.713Z,1.60
2018-06-19T03:03:09.715Z,1.40
2018-06-19T03:04:09.725Z,1.90
2018-06-19T03:05:09.718Z,1.60
2018-06-19T03:06:09.718Z,1.70
2018-06-19T03:07:09.720Z,1.70
2018-06-19T03:08:09.722Z,1.10
2018-06-19T03:09:09.723Z,1.50
2018-06-19T03:10:09.724Z,1.60
2018-06-19T03:11:09.726Z,1.50
2018-06-19T03:12:09.729Z,1.10
2018-06-19T03:13:09.728Z,1.00
2018-06-19T03:14:09.729Z,1.50
2018-06-19T03:15:09.731Z,1.60
2018-06-19T03:16:09.784Z,1.90
2018-06-19T03:17:09.734Z,1.90
2018-06-19T03:18:09.735Z,1.10
2018-06-19T03:19:09.740Z,1.50
2018-06-19T03:20:09.740Z,1.50
2018-06-19T03:21:09.739Z,1.10
2018-06-19T03:22:09.741Z,1.40
2018-06-19T03:23:09.741Z,1.50
2018-06-19T03:24:09.746Z,2.10
2018-06-19T03:25:09.744Z,1.50
2018-06-19T03:26:09.747Z,1.30
2018-06-19T03:27:09.747Z,1.70
2018-06-19T03:28:09.748Z,1.70
2018-06-19T03:29:09.750Z,1.40
2018-06-19T03:30:09.845Z,1.40
2018-06-19T03:31:09.762Z,1.60
2018-06-19T03:32:09.755Z,1.50
2018-06-19T03:33:09.756Z,1.50
2018-06-19T03:34:09.756Z,1.40
2018-06-19T03:35:09.757Z,1.30
2018-06-19T03:36:09.758Z,1.30
2018-06-19T03:37:09.761Z,1.70
2018-06-19T03:38:09.761Z,1.50
2018-06-19T03:39:09.764Z,1.60
2018-06-19T03:40:09.764Z,1.60
2018-06-19T03:41:09.767Z,1.40
2018-06-19T03:42:09.765Z,1.30
2018-06-19T03:43:09.768Z,1.70
2018-06-19T03:44:09.769Z,1.30
2018-06-19T03:45:09.771Z,1.90
2018-06-19T03:46:09.772Z,1.60
2018-06-19T03:47:09.773Z,1.90
2018-06-19T03:48:09.775Z,1.30
2018-06-19T03:49:09.777Z,1.50
2018-06-19T03:50:09.777Z,1.10
2018-06-19T03:51:09.780Z,1.50
2018-06-19T03:52:09.783Z,1.60
2018-06-19T03:53:09.783Z,1.70
2018-06-19T03:54:09.784Z,1.50
2018-06-19T03:55:09.785Z,1.50
2018-06-19T03:56:09.791Z,2.20
2018-06-19T03:57:09.790Z,1.10
2018-06-19T03:58:09.788Z,1.80
2018-06-19T03:59:09.790Z,1.10
2018-06-19T04:00:09.792Z,1.30
2018-06-19T04:01:09.793Z,1.60
2018-06-19T04:02:09.802Z,1.40
2018-06-19T04:03:09.795Z,1.30
2018-06-19T04:04:09.798Z,2.00
2018-06-19T04:05:09.802Z,1.70
2018-06-19T04:06:09.800Z,2.10
2018-06-19T04:07:09.801Z,2.00
2018-06-19T04:08:09.803Z,1.60
2018-06-19T04:09:09.805Z,1.60
2018-06-19T04:10:09.809Z,1.50
2018-06-19T04:11:09.807Z,1.60
2018-06-19T04:12:09.808Z,1.50
2018-06-19T04:13:09.810Z,1.60
2018-06-19T04:14:09.811Z,1.90
2018-06-19T04:15:09.816Z,1.80
2018-06-19T04:16:09.814Z,1.50
2018-06-19T04:17:09.877Z,1.60
2018-06-19T04:18:09.816Z,2.00
2018-06-19T04:19:09.818Z,1.80
2018-06-19T04:20:09.820Z,1.30
2018-06-19T04:21:09.821Z,2.20
2018-06-19T04:22:09.822Z,1.80
2018-06-19T04:23:09.825Z,1.30
2018-06-19T04:24:09.825Z,1.50
2018-06-19T04:25:09.829Z,1.70
2018-06-19T04:26:09.827Z,1.60
2018-06-19T04:27:09.829Z,1.70
2018-06-19T04:28:09.832Z,1.80
2018-06-19T04:29:09.833Z,1.90
2018-06-19T04:30:09.833Z,1.90
2018-06-19T04:31:09.837Z,1.50
2018-06-19T04:32:09.836Z,1.80
2018-06-19T04:33:09.837Z,1.70
2018-06-19T04:34:09.840Z,1.70
2018-06-19T04:35:09.840Z,1.60
2018-06-19T04:36:09.842Z,1.90
2018-06-19T04:37:09.842Z,1.60
2018-06-19T04:38:09.845Z,1.80
2018-06-19T04:39:09.846Z,1.50
2018-06-19T04:40:09.849Z,1.40
2018-06-19T04:41:09.849Z,1.90
2018-06-19T04:42:09.883Z,2.10
2018-06-19T04:43:09.851Z,1.70
2018-06-19T04:44:09.853Z,1.80
2018-06-19T04:45:09.855Z,1.80
2018-06-19T04:46:09.855Z,1.70
2018-06-19T04:47:09.858Z,2.00
2018-06-19T04:48:09.859Z,1.80
2018-06-19T04:49:09.860Z,1.70
2018-06-19T04:50:09.860Z,1.90
2018-06-19T04:51:09.862Z,1.70
2018-06-19T04:52:09.864Z,1.60
2018-06-19T04:53:09.867Z,1.80
2018-06-19T04:54:09.865Z,1.80
2018-06-19T04:55:09.868Z,1.60
2018-06-19T04:56:09.869Z,2.00
2018-06-19T04:57:09.871Z,1.60
2018-06-19T04:58:09.871Z,1.60
2018-06-19T04:59:09.874Z,2.00
2018-06-19T05:00:09.875Z,2.30
2018-06-19T05:01:09.877Z,2.00
2018-06-19T05:02:09.881Z,1.70
2018-06-19T05:03:09.878Z,1.90
2018-06-19T05:04:09.880Z,2.00
2018-06-19T05:05:09.884Z,1.70
2018-06-19T05:06:09.885Z,1.60
2018-06-19T05:07:09.885Z,1.60
2018-06-19T05:08:09.886Z,1.60
2018-06-19T05:09:09.888Z,2.00
2018-06-19T05:10:09.889Z,2.00
2018-06-19T05:11:09.890Z,1.80
2018-06-19T05:12:09.892Z,2.20
2018-06-19T05:13:09.893Z,1.70
2018-06-19T05:14:09.894Z,1.80
2018-06-19T05:15:09.896Z,1.80
2018-06-19T05:16:09.901Z,2.40
2018-06-19T05:17:09.899Z,2.60
2018-06-19T05:18:09.904Z,2.30
2018-06-19T05:19:09.902Z,1.80
2018-06-19T05:20:09.958Z,1.90
2018-06-19T05:21:09.905Z,2.30
2018-06-19T05:22:09.906Z,1.90
2018-06-19T05:23:09.908Z,1.60
2018-06-19T05:24:09.910Z,1.90
2018-06-19T05:25:09.915Z,2.90
2018-06-19T05:26:09.913Z,2.10
2018-06-19T05:27:09.914Z,1.90
2018-06-19T05:28:09.918Z,1.90
2018-06-19T05:29:09.918Z,2.10
2018-06-19T05:30:09.921Z,1.90
2018-06-19T05:31:09.921Z,1.30
2018-06-19T05:32:09.926Z,2.00
2018-06-19T05:33:09.925Z,1.70
2018-06-19T05:34:09.926Z,2.00
2018-06-19T05:35:09.928Z,2.10
2018-06-19T05:36:09.930Z,1.40
2018-06-19T05:37:09.932Z,1.90
2018-06-19T05:38:09.936Z,2.10
2018-06-19T05:39:09.935Z,2.00
2018-06-19T05:40:09.936Z,2.00
2018-06-19T05:41:09.939Z,2.40
2018-06-19T05:42:09.939Z,2.00
2018-06-19T05:43:09.947Z,1.70
2018-06-19T05:44:09.943Z,2.40
2018-06-19T05:45:09.946Z,1.80
2018-06-19T05:46:09.994Z,2.30
2018-06-19T05:47:09.953Z,1.80
2018-06-19T05:48:09.950Z,1.70
2018-06-19T05:49:09.953Z,2.20
2018-06-19T05:50:09.953Z,1.80
2018-06-19T05:51:09.955Z,1.80
2018-06-19T05:52:09.960Z,2.40
2018-06-19T05:53:09.960Z,2.90
2018-06-19T05:54:09.962Z,2.30
2018-06-19T05:55:09.963Z,2.00
2018-06-19T05:56:09.986Z,2.30
2018-06-19T05:57:09.966Z,2.50
2018-06-19T05:58:09.968Z,2.70
2018-06-19T05:59:09.970Z,2.20
2018-06-19T06:00:09.986Z,2.00
2018-06-19T06:01:09.974Z,3.00
2018-06-19T06:02:09.975Z,2.10
2018-06-19T06:03:09.977Z,3.30
2018-06-19T06:04:09.978Z,2.20
2018-06-19T06:05:09.981Z,1.90
2018-06-19T06:06:09.982Z,2.40
2018-06-19T06:07:09.988Z,2.90
2018-06-19T06:08:09.987Z,3.10
2018-06-19T06:09:09.988Z,2.60
2018-06-19T06:10:09.989Z,3.20
2018-06-19T06:11:10.003Z,3.20
2018-06-19T06:12:09.993Z,3.50
2018-06-19T06:13:09.996Z,2.30
2018-06-19T06:14:09.996Z,2.30
2018-06-19T06:15:09.999Z,2.30
2018-06-19T06:16:10.001Z,2.80
2018-06-19T06:17:10.015Z,2.80
2018-06-19T06:18:10.003Z,3.10
2018-06-19T06:19:10.006Z,3.00
2018-06-19T06:20:10.008Z,3.20
2018-06-19T06:21:10.012Z,3.30
2018-06-19T06:22:10.020Z,2.50
2018-06-19T06:23:10.014Z,3.00
2018-06-19T06:24:10.016Z,3.60
2018-06-19T06:25:10.018Z,3.20
2018-06-19T06:26:10.020Z,2.60
2018-06-19T06:27:10.021Z,3.40
2018-06-19T06:28:10.023Z,3.30
2018-06-19T06:29:10.025Z,3.60
2018-06-19T06:30:10.028Z,3.50
2018-06-19T06:31:10.029Z,3.90
2018-06-19T06:32:10.032Z,2.90
2018-06-19T06:33:10.033Z,3.40
2018-06-19T06:34:10.035Z,3.10
2018-06-19T06:35:10.037Z,2.70
2018-06-19T06:36:10.039Z,3.20
2018-06-19T06:37:10.041Z,3.40
2018-06-19T06:38:10.042Z,2.70
2018-06-19T06:39:10.044Z,2.90
2018-06-19T06:40:10.047Z,3.80
2018-06-19T06:41:10.049Z,4.00
2018-06-19T06:42:10.050Z,3.80
2018-06-19T06:43:10.053Z,3.60
2018-06-19T06:44:10.057Z,3.70
2018-06-19T06:45:10.057Z,3.50
2018-06-19T06:46:10.059Z,4.00
2018-06-19T06:47:10.064Z,5.10
2018-06-19T06:48:10.064Z,4.20
2018-06-19T06:49:10.066Z,3.80
2018-06-19T06:50:10.141Z,3.60
2018-06-19T06:51:10.069Z,3.50
2018-06-19T06:52:10.075Z,3.90
2018-06-19T06:53:10.074Z,4.40
2018-06-19T06:54:10.076Z,4.00
2018-06-19T06:55:10.078Z,4.80
2018-06-19T06:56:10.082Z,4.10
2018-06-19T06:57:10.084Z,4.20
2018-06-19T06:58:10.085Z,4.30
2018-06-19T06:59:10.087Z,3.50
2018-06-19T07:00:10.092Z,4.90
2018-06-19T07:01:10.101Z,3.80
2018-06-19T07:02:10.095Z,4.30
2018-06-19T07:03:10.097Z,3.90
2018-06-19T07:04:10.102Z,4.90
2018-06-19T07:05:10.104Z,5.30
2018-06-19T07:06:10.104Z,4.40
2018-06-19T07:07:10.109Z,4.70
2018-06-19T07:08:10.112Z,4.70
2018-06-19T07:09:10.112Z,5.50
2018-06-19T07:10:10.144Z,5.00
2018-06-19T07:11:10.118Z,5.50
2018-06-19T07:12:10.119Z,5.30
2018-06-19T07:13:10.123Z,5.10
2018-06-19T07:14:10.124Z,5.30
2018-06-19T07:15:10.126Z,5.50
2018-06-19T07:16:10.130Z,5.30
2018-06-19T07:17:10.133Z,5.40
2018-06-19T07:18:10.135Z,5.90
2018-06-19T07:19:10.193Z,6.10
2018-06-19T07:20:10.140Z,6.00
2018-06-19T07:21:10.142Z,5.50
2018-06-19T07:22:10.144Z,5.70
2018-06-19T07:23:10.147Z,6.10
2018-06-19T07:24:10.151Z,7.10
2018-06-19T07:25:10.153Z,6.10
2018-06-19T07:26:10.177Z,6.00
2018-06-19T07:27:10.156Z,5.80
2018-06-19T07:28:10.160Z,5.60
2018-06-19T07:29:10.161Z,6.50
2018-06-19T07:30:10.162Z,5.80
2018-06-19T07:31:10.167Z,6.10
2018-06-19T07:32:10.169Z,6.50
2018-06-19T07:33:10.171Z,5.80
2018-06-19T07:34:10.173Z,6.00
2018-06-19T07:35:10.176Z,6.30
2018-06-19T07:36:10.179Z,6.40
2018-06-19T07:37:10.181Z,6.30
2018-06-19T07:38:10.242Z,5.80
2018-06-19T07:39:10.189Z,6.20
2018-06-19T07:40:10.194Z,5.50
2018-06-19T07:41:10.192Z,5.80
2018-06-19T07:42:10.195Z,6.00
2018-06-19T07:43:10.197Z,5.90
2018-06-19T07:44:10.248Z,4.90
2018-06-19T07:45:10.203Z,5.90
2018-06-19T07:46:10.209Z,6.80
2018-06-19T07:47:10.209Z,7.00
2018-06-19T07:48:10.212Z,6.10
2018-06-19T07:49:10.214Z,6.90
2018-06-19T07:50:10.218Z,6.00
2018-06-19T07:51:10.223Z,6.20
2018-06-19T07:52:10.223Z,6.50
2018-06-19T07:53:10.226Z,7.00
2018-06-19T07:54:10.228Z,5.20
2018-06-19T07:55:10.231Z,6.10
2018-06-19T07:56:10.236Z,6.30
2018-06-19T07:57:10.242Z,5.70
2018-06-19T07:58:10.240Z,6.40
2018-06-19T07:59:10.243Z,6.80
2018-06-19T08:00:10.247Z,7.30
2018-06-19T08:01:10.251Z,6.30
2018-06-19T08:02:10.252Z,8.00
2018-06-19T08:03:10.256Z,7.10
2018-06-19T08:04:10.259Z,7.70
2018-06-19T08:05:10.262Z,6.90
2018-06-19T08:06:10.264Z,8.30
2018-06-19T08:07:10.268Z,7.50
2018-06-19T08:08:10.274Z,6.80
2018-06-19T08:09:10.275Z,7.50
2018-06-19T08:10:10.277Z,7.60
2018-06-19T08:11:10.280Z,7.40
2018-06-19T08:12:10.285Z,7.00
2018-06-19T08:13:10.290Z,7.20
2018-06-19T08:14:10.290Z,7.50
2018-06-19T08:15:10.295Z,7.90
2018-06-19T08:16:10.297Z,7.70
2018-06-19T08:17:10.301Z,7.30
2018-06-19T08:18:10.303Z,7.60
2018-06-19T08:19:10.306Z,8.00
2018-06-19T08:20:10.309Z,7.70
2018-06-19T08:21:10.313Z,8.40
2018-06-19T08:22:10.317Z,7.60
2018-06-19T08:23:10.321Z,8.70
2018-06-19T08:24:10.373Z,8.40
2018-06-19T08:25:10.326Z,8.30
2018-06-19T08:26:10.328Z,7.90
2018-06-19T08:27:10.333Z,8.90
2018-06-19T08:28:10.335Z,8.00
2018-06-19T08:29:10.340Z,8.60
2018-06-19T08:30:10.341Z,7.80
2018-06-19T08:31:10.347Z,8.30
2018-06-19T08:32:10.349Z,8.70
2018-06-19T08:33:10.352Z,7.80
2018-06-19T08:34:10.355Z,9.10
2018-06-19T08:35:10.359Z,8.20
2018-06-19T08:36:10.369Z,9.00
2018-06-19T08:37:10.365Z,8.10
2018-06-19T08:38:10.370Z,8.40
2018-06-19T08:39:10.375Z,8.30
2018-06-19T08:40:10.377Z,8.80
2018-06-19T08:41:10.380Z,8.60
2018-06-19T08:42:10.383Z,8.70
2018-06-19T08:43:10.386Z,8.50
2018-06-19T08:44:10.390Z,8.20
2018-06-19T08:45:10.394Z,8.10
2018-06-19T08:46:10.398Z,8.70
2018-06-19T08:47:10.402Z,9.60
2018-06-19T08:48:10.404Z,8.20
2018-06-19T08:49:10.410Z,9.00
2018-06-19T08:50:10.411Z,8.10
2018-06-19T08:51:10.416Z,8.50
2018-06-19T08:52:10.421Z,9.30
2018-06-19T08:53:10.424Z,9.60
2018-06-19T08:54:10.427Z,7.90
2018-06-19T08:55:10.489Z,9.00
2018-06-19T08:56:10.436Z,8.70
2018-06-19T08:57:10.442Z,8.70
2018-06-19T08:58:10.444Z,9.10
2018-06-19T08:59:10.449Z,8.40
2018-06-19T09:00:10.476Z,8.30
2018-06-19T09:01:10.457Z,9.30
2018-06-19T09:02:10.464Z,8.50
2018-06-19T09:03:10.466Z,8.10
2018-06-19T09:04:10.474Z,8.40
2018-06-19T09:05:10.476Z,8.70
2018-06-19T09:06:10.480Z,8.90
2018-06-19T09:07:10.483Z,9.90
2018-06-19T09:08:10.489Z,9.00
2018-06-19T09:09:10.494Z,9.40
2018-06-19T09:10:10.498Z,9.00
2018-06-19T09:11:10.503Z,8.90
2018-06-19T09:12:10.510Z,8.70
2018-06-19T09:13:10.513Z,8.60
2018-06-19T09:14:10.517Z,9.40
2018-06-19T09:15:10.526Z,9.20
2018-06-19T09:16:10.528Z,8.60
2018-06-19T09:17:10.534Z,8.80
2018-06-19T09:18:10.536Z,9.10
2018-06-19T09:19:10.541Z,8.80
2018-06-19T09:20:10.579Z,8.70
2018-06-19T09:21:10.552Z,10.10
2018-06-19T09:22:10.555Z,8.50
2018-06-19T09:23:10.564Z,8.20
2018-06-19T09:24:10.571Z,8.90
2018-06-19T09:25:10.571Z,8.80
2018-06-19T09:26:10.574Z,8.80
2018-06-19T09:27:10.580Z,8.90
2018-06-19T09:28:10.589Z,9.70
2018-06-19T09:29:10.590Z,8.50
2018-06-19T09:30:10.594Z,10.10
2018-06-19T09:31:10.602Z,8.90
2018-06-19T09:32:10.603Z,9.10
2018-06-19T09:33:10.612Z,8.70
2018-06-19T09:34:10.613Z,8.60
2018-06-19T09:35:10.619Z,8.30
2018-06-19T09:36:10.624Z,8.60
2018-06-19T09:37:10.629Z,8.50
2018-06-19T09:38:10.632Z,8.40
2018-06-19T09:39:10.639Z,8.90
2018-06-19T09:40:10.644Z,9.40
2018-06-19T09:41:10.649Z,9.10
2018-06-19T09:42:10.654Z,9.00
2018-06-19T09:43:10.662Z,7.90
2018-06-19T09:44:10.666Z,8.80
2018-06-19T09:45:10.670Z,8.40
2018-06-19T09:46:10.674Z,7.40
2018-06-19T09:47:10.685Z,9.20
2018-06-19T09:48:10.689Z,9.30
2018-06-19T09:49:10.691Z,8.80
2018-06-19T09:50:10.697Z,9.30
2018-06-19T09:51:10.700Z,8.20
2018-06-19T09:52:10.706Z,8.40
2018-06-19T09:53:10.712Z,8.50
2018-06-19T09:54:10.717Z,7.50
2018-06-19T09:55:10.725Z,9.40
2018-06-19T09:56:10.728Z,7.70
2018-06-19T09:57:10.734Z,9.10
2018-06-19T09:58:10.738Z,8.90
2018-06-19T09:59:10.824Z,8.40
2018-06-19T10:00:10.750Z,10.10
2018-06-19T10:01:10.761Z,8.60
2018-06-19T10:02:10.760Z,8.90
2018-06-19T10:03:10.766Z,9.10
2018-06-19T10:04:10.773Z,10.00
2018-06-19T10:05:10.777Z,9.70
2018-06-19T10:06:10.798Z,8.40
2018-06-19T10:07:10.789Z,9.40
2018-06-19T10:08:10.792Z,9.40
2018-06-19T10:09:10.799Z,8.50
2018-06-19T10:10:10.804Z,8.00
2018-06-19T10:11:10.809Z,8.50
2018-06-19T10:12:10.862Z,8.70
2018-06-19T10:13:10.821Z,9.50
2018-06-19T10:14:10.825Z,9.30
2018-06-19T10:15:10.831Z,8.70
2018-06-19T10:16:10.841Z,9.00
2018-06-19T10:17:10.843Z,9.60
2018-06-19T10:18:10.847Z,9.20
2018-06-19T10:19:10.852Z,10.40
2018-06-19T10:20:10.859Z,9.70
2018-06-19T10:21:10.865Z,9.00
2018-06-19T10:22:10.869Z,9.20
2018-06-19T10:23:10.875Z,9.80
2018-06-19T10:24:10.881Z,9.90
2018-06-19T10:25:10.889Z,8.90
2018-06-19T10:26:10.890Z,9.20
2018-06-19T10:27:10.897Z,9.00
2018-06-19T10:28:10.903Z,8.90
2018-06-19T10:29:10.914Z,8.70
2018-06-19T10:30:10.914Z,9.40
2018-06-19T10:31:10.919Z,9.00
2018-06-19T10:32:10.927Z,9.60
2018-06-19T10:33:10.933Z,8.80
2018-06-19T10:34:10.937Z,8.30
2018-06-19T10:35:10.945Z,9.10
2018-06-19T10:36:10.951Z,9.10
2018-06-19T10:37:10.955Z,9.70
2018-06-19T10:38:10.960Z,9.20
2018-06-19T10:39:10.966Z,8.70
2018-06-19T10:40:11.006Z,8.20
2018-06-19T10:41:10.980Z,10.20
2018-06-19T10:42:10.982Z,8.10
2018-06-19T10:43:10.988Z,7.40
2018-06-19T10:44:10.994Z,8.90
2018-06-19T10:45:10.999Z,9.50
2018-06-19T10:46:11.007Z,10.20
2018-06-19T10:47:11.009Z,8.70
2018-06-19T10:48:11.015Z,8.60
2018-06-19T10:49:11.021Z,8.90
2018-06-19T10:50:11.027Z,10.00
2018-06-19T10:51:11.033Z,9.10
2018-06-19T10:52:11.039Z,8.30
2018-06-19T10:53:11.044Z,8.30
2018-06-19T10:54:11.049Z,9.40
2018-06-19T10:55:11.053Z,9.60
2018-06-19T10:56:11.060Z,8.70
2018-06-19T10:57:11.067Z,9.70
2018-06-19T10:58:11.070Z,8.40
2018-06-19T10:59:11.077Z,9.30
2018-06-19T11:00:11.083Z,15.10
2018-06-19T11:01:11.089Z,9.60
2018-06-19T11:02:11.094Z,8.30
2018-06-19T11:03:11.101Z,8.20
2018-06-19T11:04:11.107Z,9.00
2018-06-19T11:05:11.142Z,9.30
2018-06-19T11:06:11.118Z,8.90
2018-06-19T11:07:11.185Z,8.60
2018-06-19T11:08:11.177Z,8.20
2018-06-19T11:09:11.138Z,8.10
2018-06-19T11:10:11.141Z,8.90
2018-06-19T11:11:11.148Z,7.70
2018-06-19T11:12:11.154Z,8.80
2018-06-19T11:13:11.161Z,8.80
2018-06-19T11:14:11.205Z,8.20
2018-06-19T11:15:11.173Z,7.50
2018-06-19T11:16:11.180Z,8.30
2018-06-19T11:17:11.187Z,8.90
2018-06-19T11:18:11.193Z,8.50
2018-06-19T11:19:11.200Z,8.80
2018-06-19T11:20:11.207Z,9.30
2018-06-19T11:21:11.214Z,9.90
2018-06-19T11:22:11.220Z,9.30
2018-06-19T11:23:11.228Z,9.20
2018-06-19T11:24:11.235Z,9.40
2018-06-19T11:25:11.240Z,8.70
2018-06-19T11:26:11.248Z,10.40
2018-06-19T11:27:11.258Z,8.50
2018-06-19T11:28:11.261Z,8.60
2018-06-19T11:29:11.268Z,9.50
2018-06-19T11:30:11.275Z,9.00
2018-06-19T11:31:11.281Z,8.20
2018-06-19T11:32:11.289Z,9.20
2018-06-19T11:33:11.295Z,8.10
2018-06-19T11:34:11.301Z,8.50
2018-06-19T11:35:11.309Z,9.00
2018-06-19T11:36:11.315Z,9.70
2018-06-19T11:37:11.322Z,9.50
2018-06-19T11:38:11.335Z,9.20
2018-06-19T11:39:11.334Z,9.40
2018-06-19T11:40:11.342Z,8.60
2018-06-19T11:41:11.349Z,8.20
2018-06-19T11:42:11.355Z,8.30
2018-06-19T11:43:11.361Z,8.00
2018-06-19T11:44:11.368Z,7.50
2018-06-19T11:45:11.376Z,8.60
2018-06-19T11:46:11.382Z,7.80
2018-06-19T11:47:11.389Z,9.50
2018-06-19T11:48:11.395Z,8.20
2018-06-19T11:49:11.427Z,8.60
2018-06-19T11:50:11.412Z,8.60
2018-06-19T11:51:11.416Z,8.00
2018-06-19T11:52:11.423Z,9.20
2018-06-19T11:53:11.430Z,8.30
2018-06-19T11:54:11.436Z,7.80
2018-06-19T11:55:11.443Z,7.60
2018-06-19T11:56:11.451Z,7.50
2018-06-19T11:57:11.458Z,7.60
2018-06-19T11:58:11.463Z,8.30
2018-06-19T11:59:11.471Z,7.70
2018-06-19T12:00:11.481Z,8.30
2018-06-19T12:01:11.544Z,7.70
2018-06-19T12:02:11.490Z,7.80
2018-06-19T12:03:11.497Z,7.20
2018-06-19T12:04:11.506Z,7.50
2018-06-19T12:05:11.513Z,8.20
2018-06-19T12:06:11.518Z,7.80
2018-06-19T12:07:11.525Z,8.20
2018-06-19T12:08:11.537Z,7.60
2018-06-19T12:09:11.540Z,7.90
2018-06-19T12:10:11.546Z,7.30
2018-06-19T12:11:11.553Z,7.20
2018-06-19T12:12:11.561Z,7.80
2018-06-19T12:13:11.586Z,8.00
2018-06-19T12:14:11.575Z,8.80
2018-06-19T12:15:11.581Z,7.30
2018-06-19T12:16:11.588Z,7.50
2018-06-19T12:17:11.595Z,8.30
2018-06-19T12:18:11.601Z,7.80
2018-06-19T12:19:11.607Z,7.70
2018-06-19T12:20:11.615Z,7.80
2018-06-19T12:21:11.624Z,7.80
2018-06-19T12:22:11.628Z,8.00
2018-06-19T12:23:11.635Z,7.10
2018-06-19T12:24:11.642Z,8.30
2018-06-19T12:25:11.650Z,7.80
2018-06-19T12:26:11.655Z,8.90
2018-06-19T12:27:11.662Z,8.50
2018-06-19T12:28:11.669Z,7.30
2018-06-19T12:29:11.674Z,7.80
2018-06-19T12:30:11.682Z,8.30
2018-06-19T12:31:11.688Z,7.90
2018-06-19T12:32:11.696Z,9.20
2018-06-19T12:33:11.702Z,7.80
2018-06-19T12:34:11.708Z,7.60
2018-06-19T12:35:11.715Z,7.50
2018-06-19T12:36:11.725Z,8.40
2018-06-19T12:37:11.729Z,7.40
2018-06-19T12:38:11.734Z,9.10
2018-06-19T12:39:11.741Z,7.70
2018-06-19T12:40:11.753Z,7.50
2018-06-19T12:41:11.755Z,7.70
2018-06-19T12:42:11.761Z,8.30
2018-06-19T12:43:11.771Z,8.50
2018-06-19T12:44:11.779Z,8.00
2018-06-19T12:45:11.783Z,6.80
2018-06-19T12:46:11.789Z,6.70
2018-06-19T12:47:11.798Z,7.10
2018-06-19T12:48:11.804Z,6.70
2018-06-19T12:49:11.811Z,7.70
2018-06-19T12:50:11.817Z,7.50
2018-06-19T12:51:11.825Z,7.20
2018-06-19T12:52:11.832Z,8.10
2018-06-19T12:53:11.840Z,8.00
2018-06-19T12:54:11.847Z,6.80
2018-06-19T12:55:11.855Z,7.30
2018-06-19T12:56:11.863Z,6.60
2018-06-19T12:57:11.870Z,7.60
2018-06-19T12:58:11.885Z,7.30
2018-06-19T12:59:11.884Z,7.70
2018-06-19T13:00:11.893Z,7.70
2018-06-19T13:01:11.900Z,7.20
2018-06-19T13:02:11.907Z,7.80
2018-06-19T13:03:11.914Z,7.80
2018-06-19T13:04:11.923Z,7.50
2018-06-19T13:05:11.940Z,8.00
2018-06-19T13:06:11.942Z,8.40
2018-06-19T13:07:11.945Z,8.90
2018-06-19T13:08:11.954Z,8.30
2018-06-19T13:09:11.962Z,7.80
2018-06-19T13:10:11.968Z,7.70
2018-06-19T13:11:12.078Z,6.90
2018-06-19T13:12:11.985Z,7.10
2018-06-19T13:13:11.993Z,7.80
2018-06-19T13:14:12.004Z,6.80
2018-06-19T13:15:12.010Z,8.20
2018-06-19T13:16:12.017Z,8.10
2018-06-19T13:17:12.025Z,7.60
2018-06-19T13:18:12.032Z,8.10